sensor_id;sensor_type;location;lat;lon;timestamp;temperature;humidity
13231;DHT22;6681;53.254;10.398;2022-12-18T00:01:30;-5.70;99.90
13231;DHT22;6681;53.254;10.398;2022-12-18T00:03:57;-5.70;99.90
13231;DHT22;6681;53.254;10.398;2022-12-18T00:06:24;-5.70;99.90
13231;DHT22;6681;53.254;10.398;2022-12-18T00:08:50;-5.60;99.90
13231;DHT22;6681;53.254;10.398;2022-12-18T00:11:21;-5.60;99.90
13231;DHT22;6681;53.254;10.398;2022-12-18T00:13:48;-5.50;99.90
13231;DHT22;6681;53.254;10.398;2022-12-18T00:16:16;-4.10;99.90
13231;DHT22;6681;53.254;10.398;2022-12-18T00:18:45;-3.60;99.90
13231;DHT22;6681;53.254;10.398;2022-12-18T00:21:12;-3.70;99.90
13231;DHT22;6681;53.254;10.398;2022-12-18T00:23:39;-5.60;99.90
13231;DHT22;6681;53.254;10.398;2022-12-18T00:26:09;-5.60;99.90
13231;DHT22;6681;53.254;10.398;2022-12-18T00:28:35;-3.20;99.90
13231;DHT22;6681;53.254;10.398;2022-12-18T00:31:02;-5.70;99.90
13231;DHT22;6681;53.254;10.398;2022-12-18T00:33:28;-5.60;99.90
13231;DHT22;6681;53.254;10.398;2022-12-18T00:35:53;-5.70;99.90
13231;DHT22;6681;53.254;10.398;2022-12-18T00:38:19;-5.70;99.90
13231;DHT22;6681;53.254;10.398;2022-12-18T00:40:45;-5.80;99.90
13231;DHT22;6681;53.254;10.398;2022-12-18T00:43:10;-5.80;99.90
13231;DHT22;6681;53.254;10.398;2022-12-18T00:45:36;-5.90;99.90
13231;DHT22;6681;53.254;10.398;2022-12-18T00:48:07;-6.00;99.90
13231;DHT22;6681;53.254;10.398;2022-12-18T00:50:32;-6.00;99.90
13231;DHT22;6681;53.254;10.398;2022-12-18T00:52:58;-6.00;99.90
13231;DHT22;6681;53.254;10.398;2022-12-18T00:55:24;-5.50;99.90
13231;DHT22;6681;53.254;10.398;2022-12-18T00:57:51;-6.00;99.90
13231;DHT22;6681;53.254;10.398;2022-12-18T01:00:18;-6.00;99.90
13231;DHT22;6681;53.254;10.398;2022-12-18T01:02:44;-5.90;99.90
13231;DHT22;6681;53.254;10.398;2022-12-18T01:05:12;-4.60;99.90
13231;DHT22;6681;53.254;10.398;2022-12-18T01:07:38;-5.80;99.90
13231;DHT22;6681;53.254;10.398;2022-12-18T01:10:04;-5.80;99.90
13231;DHT22;6681;53.254;10.398;2022-12-18T01:12:30;-5.80;99.90
13231;DHT22;6681;53.254;10.398;2022-12-18T01:14:56;-5.80;99.90
13231;DHT22;6681;53.254;10.398;2022-12-18T01:17:22;-5.80;99.90
13231;DHT22;6681;53.254;10.398;2022-12-18T01:19:48;-5.80;99.90
13231;DHT22;6681;53.254;10.398;2022-12-18T01:22:20;-5.80;99.90
13231;DHT22;6681;53.254;10.398;2022-12-18T01:24:45;-5.90;99.90
13231;DHT22;6681;53.254;10.398;2022-12-18T01:27:11;-6.00;99.90
13231;DHT22;6681;53.254;10.398;2022-12-18T01:29:37;-6.00;99.90
13231;DHT22;6681;53.254;10.398;2022-12-18T01:32:02;-6.10;99.90
13231;DHT22;6681;53.254;10.398;2022-12-18T01:34:28;-6.10;99.90
13231;DHT22;6681;53.254;10.398;2022-12-18T01:36:53;-4.90;99.90
13231;DHT22;6681;53.254;10.398;2022-12-18T01:39:19;-4.50;99.90
13231;DHT22;6681;53.254;10.398;2022-12-18T01:41:46;-5.90;99.90
13231;DHT22;6681;53.254;10.398;2022-12-18T01:47:36;-6.10;99.90
13231;DHT22;6681;53.254;10.398;2022-12-18T01:50:51;-6.10;99.90
13231;DHT22;6681;53.254;10.398;2022-12-18T01:52:55;-6.20;99.90
13231;DHT22;6681;53.254;10.398;2022-12-18T01:55:24;-6.20;99.90
13231;DHT22;6681;53.254;10.398;2022-12-18T01:57:56;-5.60;99.90
13231;DHT22;6681;53.254;10.398;2022-12-18T02:00:23;-6.30;99.90
13231;DHT22;6681;53.254;10.398;2022-12-18T02:02:49;-6.30;99.90
13231;DHT22;6681;53.254;10.398;2022-12-18T02:05:18;-6.40;99.90
13231;DHT22;6681;53.254;10.398;2022-12-18T02:10:30;-6.40;99.90
13231;DHT22;6681;53.254;10.398;2022-12-18T02:16:17;-6.50;99.90
13231;DHT22;6681;53.254;10.398;2022-12-18T02:18:48;-6.50;99.90
13231;DHT22;6681;53.254;10.398;2022-12-18T02:26:50;-6.50;99.90
13231;DHT22;6681;53.254;10.398;2022-12-18T02:29:21;-6.50;99.90
13231;DHT22;6681;53.254;10.398;2022-12-18T02:32:00;-6.40;99.90
13231;DHT22;6681;53.254;10.398;2022-12-18T02:34:30;-6.40;99.90
13231;DHT22;6681;53.254;10.398;2022-12-18T02:36:58;-6.50;99.90
13231;DHT22;6681;53.254;10.398;2022-12-18T02:39:26;-6.60;99.90
13231;DHT22;6681;53.254;10.398;2022-12-18T02:41:54;-6.60;99.90
13231;DHT22;6681;53.254;10.398;2022-12-18T02:44:20;-6.60;99.90
13231;DHT22;6681;53.254;10.398;2022-12-18T02:46:49;-6.60;99.90
13231;DHT22;6681;53.254;10.398;2022-12-18T02:49:47;-6.70;99.90
13231;DHT22;6681;53.254;10.398;2022-12-18T02:57:54;-6.70;99.90
13231;DHT22;6681;53.254;10.398;2022-12-18T03:00:24;-6.70;99.90
13231;DHT22;6681;53.254;10.398;2022-12-18T03:03:03;-6.70;99.90
13231;DHT22;6681;53.254;10.398;2022-12-18T03:05:36;-6.60;99.90
13231;DHT22;6681;53.254;10.398;2022-12-18T03:08:07;-6.60;99.90
13231;DHT22;6681;53.254;10.398;2022-12-18T03:10:51;-6.40;99.90
13231;DHT22;6681;53.254;10.398;2022-12-18T03:13:40;-6.70;99.90
13231;DHT22;6681;53.254;10.398;2022-12-18T03:16:11;-6.70;99.90
13231;DHT22;6681;53.254;10.398;2022-12-18T03:18:51;-6.80;99.90
13231;DHT22;6681;53.254;10.398;2022-12-18T03:21:24;-6.00;99.90
13231;DHT22;6681;53.254;10.398;2022-12-18T03:23:52;-6.80;99.90
13231;DHT22;6681;53.254;10.398;2022-12-18T03:26:23;-6.80;99.90
13231;DHT22;6681;53.254;10.398;2022-12-18T03:28:53;-6.80;99.90
13231;DHT22;6681;53.254;10.398;2022-12-18T03:31:22;-6.80;99.90
13231;DHT22;6681;53.254;10.398;2022-12-18T03:33:53;-6.80;99.90
13231;DHT22;6681;53.254;10.398;2022-12-18T03:36:19;-6.80;99.90
13231;DHT22;6681;53.254;10.398;2022-12-18T03:38:45;-6.80;99.90
13231;DHT22;6681;53.254;10.398;2022-12-18T03:41:33;-6.70;99.90
13231;DHT22;6681;53.254;10.398;2022-12-18T03:47:36;-6.90;99.90
13231;DHT22;6681;53.254;10.398;2022-12-18T03:50:29;-6.90;99.90
13231;DHT22;6681;53.254;10.398;2022-12-18T03:55:32;-6.90;99.90
13231;DHT22;6681;53.254;10.398;2022-12-18T03:58:00;-7.00;99.90
13231;DHT22;6681;53.254;10.398;2022-12-18T04:00:28;-7.00;99.90
13231;DHT22;6681;53.254;10.398;2022-12-18T04:02:56;-6.90;99.90
13231;DHT22;6681;53.254;10.398;2022-12-18T04:05:24;-7.00;99.90
13231;DHT22;6681;53.254;10.398;2022-12-18T04:07:51;-7.00;99.90
13231;DHT22;6681;53.254;10.398;2022-12-18T04:10:19;-6.90;99.90
13231;DHT22;6681;53.254;10.398;2022-12-18T04:12:45;-6.90;99.90
13231;DHT22;6681;53.254;10.398;2022-12-18T04:15:11;-6.90;99.90
13231;DHT22;6681;53.254;10.398;2022-12-18T04:17:38;-7.00;99.90
13231;DHT22;6681;53.254;10.398;2022-12-18T04:20:04;-7.00;99.90
13231;DHT22;6681;53.254;10.398;2022-12-18T04:22:30;-7.00;99.90
13231;DHT22;6681;53.254;10.398;2022-12-18T04:24:55;-7.00;99.90
13231;DHT22;6681;53.254;10.398;2022-12-18T04:27:21;-7.10;99.90
13231;DHT22;6681;53.254;10.398;2022-12-18T04:29:47;-7.20;99.90
13231;DHT22;6681;53.254;10.398;2022-12-18T04:32:13;-7.10;99.90
13231;DHT22;6681;53.254;10.398;2022-12-18T04:34:38;-7.20;99.90
13231;DHT22;6681;53.254;10.398;2022-12-18T04:37:04;-7.30;99.90
13231;DHT22;6681;53.254;10.398;2022-12-18T04:39:30;-7.30;99.90
13231;DHT22;6681;53.254;10.398;2022-12-18T04:41:55;-7.30;99.90
13231;DHT22;6681;53.254;10.398;2022-12-18T04:44:21;-7.30;99.90
13231;DHT22;6681;53.254;10.398;2022-12-18T04:46:47;-7.20;99.90
13231;DHT22;6681;53.254;10.398;2022-12-18T04:49:12;-7.30;99.90
13231;DHT22;6681;53.254;10.398;2022-12-18T04:51:38;-7.40;99.90
13231;DHT22;6681;53.254;10.398;2022-12-18T04:54:04;-7.40;99.90
13231;DHT22;6681;53.254;10.398;2022-12-18T04:56:31;-7.40;99.90
13231;DHT22;6681;53.254;10.398;2022-12-18T04:58:57;-7.30;99.90
13231;DHT22;6681;53.254;10.398;2022-12-18T05:01:23;-7.40;99.90
13231;DHT22;6681;53.254;10.398;2022-12-18T05:03:48;-7.10;99.90
13231;DHT22;6681;53.254;10.398;2022-12-18T05:06:14;-7.40;99.90
13231;DHT22;6681;53.254;10.398;2022-12-18T05:08:40;-7.40;99.90
13231;DHT22;6681;53.254;10.398;2022-12-18T05:11:08;-7.50;99.90
13231;DHT22;6681;53.254;10.398;2022-12-18T05:13:35;-7.40;99.90
13231;DHT22;6681;53.254;10.398;2022-12-18T05:16:01;-7.40;99.90
13231;DHT22;6681;53.254;10.398;2022-12-18T05:18:28;-7.40;99.90
13231;DHT22;6681;53.254;10.398;2022-12-18T05:20:54;-7.50;99.90
13231;DHT22;6681;53.254;10.398;2022-12-18T05:23:21;-7.40;99.90
13231;DHT22;6681;53.254;10.398;2022-12-18T05:25:55;-7.40;99.90
13231;DHT22;6681;53.254;10.398;2022-12-18T05:28:21;-7.50;99.90
13231;DHT22;6681;53.254;10.398;2022-12-18T05:30:52;-7.50;99.90
13231;DHT22;6681;53.254;10.398;2022-12-18T05:33:19;-7.60;99.90
13231;DHT22;6681;53.254;10.398;2022-12-18T05:36:11;-7.50;99.90
13231;DHT22;6681;53.254;10.398;2022-12-18T05:38:38;-7.50;99.90
13231;DHT22;6681;53.254;10.398;2022-12-18T05:41:04;-7.40;99.90
13231;DHT22;6681;53.254;10.398;2022-12-18T05:43:30;-7.50;99.90
13231;DHT22;6681;53.254;10.398;2022-12-18T05:45:56;-7.50;99.90
13231;DHT22;6681;53.254;10.398;2022-12-18T05:48:22;-7.50;99.90
13231;DHT22;6681;53.254;10.398;2022-12-18T05:50:49;-7.50;99.90
13231;DHT22;6681;53.254;10.398;2022-12-18T05:53:17;-7.50;99.90
13231;DHT22;6681;53.254;10.398;2022-12-18T05:55:43;-7.60;99.90
13231;DHT22;6681;53.254;10.398;2022-12-18T05:58:11;-7.60;99.90
13231;DHT22;6681;53.254;10.398;2022-12-18T06:00:40;-7.60;99.90
13231;DHT22;6681;53.254;10.398;2022-12-18T06:03:07;-7.60;99.90
13231;DHT22;6681;53.254;10.398;2022-12-18T06:05:41;-7.60;99.90
13231;DHT22;6681;53.254;10.398;2022-12-18T06:08:07;-7.70;99.90
13231;DHT22;6681;53.254;10.398;2022-12-18T06:10:33;-7.70;99.90
13231;DHT22;6681;53.254;10.398;2022-12-18T06:13:00;-7.70;99.90
13231;DHT22;6681;53.254;10.398;2022-12-18T06:15:26;-7.70;99.90
13231;DHT22;6681;53.254;10.398;2022-12-18T06:17:51;-7.70;99.90
13231;DHT22;6681;53.254;10.398;2022-12-18T06:20:17;-7.70;99.90
13231;DHT22;6681;53.254;10.398;2022-12-18T06:22:43;-7.60;99.90
13231;DHT22;6681;53.254;10.398;2022-12-18T06:25:14;-7.60;99.90
13231;DHT22;6681;53.254;10.398;2022-12-18T06:27:40;-7.50;99.90
13231;DHT22;6681;53.254;10.398;2022-12-18T06:30:06;-7.60;99.90
13231;DHT22;6681;53.254;10.398;2022-12-18T06:32:32;-7.60;99.90
13231;DHT22;6681;53.254;10.398;2022-12-18T06:34:58;-7.60;99.90
13231;DHT22;6681;53.254;10.398;2022-12-18T06:37:23;-7.60;99.90
13231;DHT22;6681;53.254;10.398;2022-12-18T06:39:54;-7.50;99.90
13231;DHT22;6681;53.254;10.398;2022-12-18T06:42:22;-7.50;99.90
13231;DHT22;6681;53.254;10.398;2022-12-18T06:44:47;-7.60;99.90
13231;DHT22;6681;53.254;10.398;2022-12-18T06:47:13;-7.70;99.90
13231;DHT22;6681;53.254;10.398;2022-12-18T06:49:39;-7.70;99.90
13231;DHT22;6681;53.254;10.398;2022-12-18T06:52:04;-7.70;99.90
13231;DHT22;6681;53.254;10.398;2022-12-18T06:54:30;-6.10;99.90
13231;DHT22;6681;53.254;10.398;2022-12-18T06:56:55;-7.70;99.90
13231;DHT22;6681;53.254;10.398;2022-12-18T06:59:21;-7.70;99.90
13231;DHT22;6681;53.254;10.398;2022-12-18T07:01:47;-7.60;99.90
13231;DHT22;6681;53.254;10.398;2022-12-18T07:04:12;-7.60;99.90
13231;DHT22;6681;53.254;10.398;2022-12-18T07:06:38;-7.70;99.90
13231;DHT22;6681;53.254;10.398;2022-12-18T07:09:04;-7.70;99.90
13231;DHT22;6681;53.254;10.398;2022-12-18T07:11:29;-7.60;99.90
13231;DHT22;6681;53.254;10.398;2022-12-18T07:14:00;-7.80;99.90
13231;DHT22;6681;53.254;10.398;2022-12-18T07:16:26;-7.80;99.90
13231;DHT22;6681;53.254;10.398;2022-12-18T07:18:54;-6.50;99.90
13231;DHT22;6681;53.254;10.398;2022-12-18T07:21:21;-7.90;99.90
13231;DHT22;6681;53.254;10.398;2022-12-18T07:23:47;-7.80;99.90
13231;DHT22;6681;53.254;10.398;2022-12-18T07:26:15;-7.80;99.90
13231;DHT22;6681;53.254;10.398;2022-12-18T07:28:42;-7.90;99.90
13231;DHT22;6681;53.254;10.398;2022-12-18T07:31:13;-7.90;99.90
13231;DHT22;6681;53.254;10.398;2022-12-18T07:33:39;-8.00;99.90
13231;DHT22;6681;53.254;10.398;2022-12-18T07:36:07;-7.90;99.90
13231;DHT22;6681;53.254;10.398;2022-12-18T07:38:34;-7.90;99.90
13231;DHT22;6681;53.254;10.398;2022-12-18T07:41:05;-7.90;99.90
13231;DHT22;6681;53.254;10.398;2022-12-18T07:43:31;-7.90;99.90
13231;DHT22;6681;53.254;10.398;2022-12-18T07:45:58;-7.90;99.90
13231;DHT22;6681;53.254;10.398;2022-12-18T07:48:23;-7.90;99.90
13231;DHT22;6681;53.254;10.398;2022-12-18T07:50:49;-7.80;99.90
13231;DHT22;6681;53.254;10.398;2022-12-18T07:53:15;-7.90;99.90
13231;DHT22;6681;53.254;10.398;2022-12-18T07:55:41;-8.00;99.90
13231;DHT22;6681;53.254;10.398;2022-12-18T07:58:08;-8.00;99.90
13231;DHT22;6681;53.254;10.398;2022-12-18T08:00:34;-8.00;99.90
13231;DHT22;6681;53.254;10.398;2022-12-18T08:03:00;-8.00;99.90
13231;DHT22;6681;53.254;10.398;2022-12-18T08:05:26;-8.00;99.90
13231;DHT22;6681;53.254;10.398;2022-12-18T08:07:52;-8.00;99.90
13231;DHT22;6681;53.254;10.398;2022-12-18T08:10:18;-8.10;99.90
13231;DHT22;6681;53.254;10.398;2022-12-18T08:12:43;-6.20;99.90
13231;DHT22;6681;53.254;10.398;2022-12-18T08:15:09;-8.10;99.90
13231;DHT22;6681;53.254;10.398;2022-12-18T08:17:35;-8.00;99.90
13231;DHT22;6681;53.254;10.398;2022-12-18T08:20:00;-8.00;99.90
13231;DHT22;6681;53.254;10.398;2022-12-18T08:22:26;-8.00;99.90
13231;DHT22;6681;53.254;10.398;2022-12-18T08:24:52;-7.90;99.90
13231;DHT22;6681;53.254;10.398;2022-12-18T08:27:18;-7.90;99.90
13231;DHT22;6681;53.254;10.398;2022-12-18T08:29:43;-7.90;99.90
13231;DHT22;6681;53.254;10.398;2022-12-18T08:32:09;-7.90;99.90
13231;DHT22;6681;53.254;10.398;2022-12-18T08:34:35;-7.90;99.90
13231;DHT22;6681;53.254;10.398;2022-12-18T08:37:00;-7.60;99.90
13231;DHT22;6681;53.254;10.398;2022-12-18T08:39:26;-8.00;99.90
13231;DHT22;6681;53.254;10.398;2022-12-18T08:41:52;-8.00;99.90
13231;DHT22;6681;53.254;10.398;2022-12-18T08:44:36;-7.90;99.90
13231;DHT22;6681;53.254;10.398;2022-12-18T08:47:05;-7.80;99.90
13231;DHT22;6681;53.254;10.398;2022-12-18T08:49:32;-7.80;99.90
13231;DHT22;6681;53.254;10.398;2022-12-18T08:51:57;-7.70;99.90
13231;DHT22;6681;53.254;10.398;2022-12-18T08:54:23;-7.70;99.90
13231;DHT22;6681;53.254;10.398;2022-12-18T08:56:49;-7.60;99.90
13231;DHT22;6681;53.254;10.398;2022-12-18T08:59:16;-7.60;99.90
13231;DHT22;6681;53.254;10.398;2022-12-18T09:01:42;-7.60;99.90
13231;DHT22;6681;53.254;10.398;2022-12-18T09:04:09;-7.50;99.90
13231;DHT22;6681;53.254;10.398;2022-12-18T09:06:35;-7.50;99.90
13231;DHT22;6681;53.254;10.398;2022-12-18T09:09:01;-5.70;99.90
13231;DHT22;6681;53.254;10.398;2022-12-18T09:11:28;-5.80;99.90
13231;DHT22;6681;53.254;10.398;2022-12-18T09:13:54;-7.30;99.90
13231;DHT22;6681;53.254;10.398;2022-12-18T09:16:21;-7.20;99.90
13231;DHT22;6681;53.254;10.398;2022-12-18T09:18:50;-7.20;99.90
13231;DHT22;6681;53.254;10.398;2022-12-18T09:21:25;-7.20;99.90
13231;DHT22;6681;53.254;10.398;2022-12-18T09:23:52;-7.20;99.90
13231;DHT22;6681;53.254;10.398;2022-12-18T09:26:19;-7.10;99.90
13231;DHT22;6681;53.254;10.398;2022-12-18T09:28:45;-7.00;99.90
13231;DHT22;6681;53.254;10.398;2022-12-18T09:31:15;-7.00;99.90
13231;DHT22;6681;53.254;10.398;2022-12-18T09:33:42;-7.00;99.90
13231;DHT22;6681;53.254;10.398;2022-12-18T09:36:09;-5.40;99.90
13231;DHT22;6681;53.254;10.398;2022-12-18T09:38:35;-6.90;99.90
13231;DHT22;6681;53.254;10.398;2022-12-18T09:43:55;-6.70;99.90
13231;DHT22;6681;53.254;10.398;2022-12-18T09:46:27;-6.70;99.90
13231;DHT22;6681;53.254;10.398;2022-12-18T09:48:58;-5.40;99.90
13231;DHT22;6681;53.254;10.398;2022-12-18T09:51:30;-6.60;99.90
13231;DHT22;6681;53.254;10.398;2022-12-18T09:54:14;-6.50;99.90
13231;DHT22;6681;53.254;10.398;2022-12-18T09:56:42;-6.40;99.90
13231;DHT22;6681;53.254;10.398;2022-12-18T09:59:21;-6.30;99.90
13231;DHT22;6681;53.254;10.398;2022-12-18T10:01:49;-6.00;99.90
13231;DHT22;6681;53.254;10.398;2022-12-18T10:04:14;-6.20;99.90
13231;DHT22;6681;53.254;10.398;2022-12-18T10:06:59;-6.10;99.90
13231;DHT22;6681;53.254;10.398;2022-12-18T10:12:21;-5.90;99.90
13231;DHT22;6681;53.254;10.398;2022-12-18T10:17:57;-5.90;99.90
13231;DHT22;6681;53.254;10.398;2022-12-18T10:23:09;-5.70;99.90
13231;DHT22;6681;53.254;10.398;2022-12-18T10:25:55;-5.60;99.90
13231;DHT22;6681;53.254;10.398;2022-12-18T10:28:23;-5.50;99.90
13231;DHT22;6681;53.254;10.398;2022-12-18T10:30:50;-5.40;99.90
13231;DHT22;6681;53.254;10.398;2022-12-18T10:33:19;-5.40;99.90
13231;DHT22;6681;53.254;10.398;2022-12-18T10:35:47;-5.30;99.90
13231;DHT22;6681;53.254;10.398;2022-12-18T10:43:34;-5.10;99.90
13231;DHT22;6681;53.254;10.398;2022-12-18T10:51:34;-4.90;99.90
13231;DHT22;6681;53.254;10.398;2022-12-18T10:54:06;-4.90;99.90
13231;DHT22;6681;53.254;10.398;2022-12-18T10:56:38;-4.80;99.90
13231;DHT22;6681;53.254;10.398;2022-12-18T10:59:10;-4.70;99.90
13231;DHT22;6681;53.254;10.398;2022-12-18T11:01:46;-4.70;99.90
13231;DHT22;6681;53.254;10.398;2022-12-18T11:04:17;-4.70;99.90
13231;DHT22;6681;53.254;10.398;2022-12-18T11:06:54;-4.70;99.90
13231;DHT22;6681;53.254;10.398;2022-12-18T11:09:23;-4.60;99.90
13231;DHT22;6681;53.254;10.398;2022-12-18T11:11:51;-4.60;99.90
13231;DHT22;6681;53.254;10.398;2022-12-18T11:14:32;-4.50;99.90
13231;DHT22;6681;53.254;10.398;2022-12-18T11:16:59;-4.50;99.90
13231;DHT22;6681;53.254;10.398;2022-12-18T11:22:23;-4.40;99.90
13231;DHT22;6681;53.254;10.398;2022-12-18T11:25:00;-4.30;99.90
13231;DHT22;6681;53.254;10.398;2022-12-18T11:27:26;-4.20;99.90
13231;DHT22;6681;53.254;10.398;2022-12-18T11:30:20;-4.20;99.90
13231;DHT22;6681;53.254;10.398;2022-12-18T11:32:59;-4.20;99.90
13231;DHT22;6681;53.254;10.398;2022-12-18T11:38:24;-4.10;99.90
13231;DHT22;6681;53.254;10.398;2022-12-18T11:41:16;-4.00;99.90
13231;DHT22;6681;53.254;10.398;2022-12-18T11:43:55;-4.00;99.90
13231;DHT22;6681;53.254;10.398;2022-12-18T11:49:36;-3.90;99.90
13231;DHT22;6681;53.254;10.398;2022-12-18T11:54:42;-3.80;99.90
13231;DHT22;6681;53.254;10.398;2022-12-18T11:57:37;-2.40;99.90
13231;DHT22;6681;53.254;10.398;2022-12-18T12:00:19;-3.70;99.90
13231;DHT22;6681;53.254;10.398;2022-12-18T12:06:07;-3.60;99.90
13231;DHT22;6681;53.254;10.398;2022-12-18T12:09:11;-3.60;99.90
13231;DHT22;6681;53.254;10.398;2022-12-18T12:12:04;-3.50;99.90
13231;DHT22;6681;53.254;10.398;2022-12-18T12:20:07;-3.50;99.90
13231;DHT22;6681;53.254;10.398;2022-12-18T12:22:51;-3.40;99.90
13231;DHT22;6681;53.254;10.398;2022-12-18T12:25:40;-3.40;99.90
13231;DHT22;6681;53.254;10.398;2022-12-18T12:34:41;-3.30;99.90
13231;DHT22;6681;53.254;10.398;2022-12-18T12:39:51;-3.30;99.90
13231;DHT22;6681;53.254;10.398;2022-12-18T12:42:44;-3.30;99.90
13231;DHT22;6681;53.254;10.398;2022-12-18T12:49:09;-3.20;99.90
13231;DHT22;6681;53.254;10.398;2022-12-18T12:51:39;-3.30;99.90
13231;DHT22;6681;53.254;10.398;2022-12-18T12:54:15;-3.30;99.90
13231;DHT22;6681;53.254;10.398;2022-12-18T12:59:55;-3.30;99.90
13231;DHT22;6681;53.254;10.398;2022-12-18T13:07:39;-3.10;99.90
13231;DHT22;6681;53.254;10.398;2022-12-18T13:13:14;-1.50;99.90
13231;DHT22;6681;53.254;10.398;2022-12-18T13:15:46;-3.20;99.90
13231;DHT22;6681;53.254;10.398;2022-12-18T13:18:20;-3.10;99.90
13231;DHT22;6681;53.254;10.398;2022-12-18T13:20:50;-1.70;99.90
13231;DHT22;6681;53.254;10.398;2022-12-18T13:26:28;-3.10;99.90
13231;DHT22;6681;53.254;10.398;2022-12-18T13:28:57;-3.20;99.90
13231;DHT22;6681;53.254;10.398;2022-12-18T13:34:20;-3.20;99.90
13231;DHT22;6681;53.254;10.398;2022-12-18T13:36:46;-3.20;99.90
13231;DHT22;6681;53.254;10.398;2022-12-18T13:41:45;-3.20;99.90
13231;DHT22;6681;53.254;10.398;2022-12-18T13:44:24;-3.20;99.90
13231;DHT22;6681;53.254;10.398;2022-12-18T13:46:51;-3.20;99.90
13231;DHT22;6681;53.254;10.398;2022-12-18T13:49:25;-3.30;99.90
13231;DHT22;6681;53.254;10.398;2022-12-18T13:51:54;-3.20;99.90
13231;DHT22;6681;53.254;10.398;2022-12-18T13:54:36;-3.30;99.90
13231;DHT22;6681;53.254;10.398;2022-12-18T13:57:05;-3.30;99.90
13231;DHT22;6681;53.254;10.398;2022-12-18T13:59:38;-3.30;99.90
13231;DHT22;6681;53.254;10.398;2022-12-18T14:02:25;-3.30;99.90
13231;DHT22;6681;53.254;10.398;2022-12-18T14:04:51;-3.30;99.90
13231;DHT22;6681;53.254;10.398;2022-12-18T14:09:52;-3.40;99.90
13231;DHT22;6681;53.254;10.398;2022-12-18T14:12:22;-3.40;99.90
13231;DHT22;6681;53.254;10.398;2022-12-18T14:20:24;-3.50;99.90
13231;DHT22;6681;53.254;10.398;2022-12-18T14:22:50;-3.50;99.90
13231;DHT22;6681;53.254;10.398;2022-12-18T14:25:23;-3.50;99.90
13231;DHT22;6681;53.254;10.398;2022-12-18T14:28:02;-3.50;99.90
13231;DHT22;6681;53.254;10.398;2022-12-18T14:35:35;-3.60;99.90
13231;DHT22;6681;53.254;10.398;2022-12-18T14:40:36;-3.60;99.90
13231;DHT22;6681;53.254;10.398;2022-12-18T14:43:02;-2.90;99.90
13231;DHT22;6681;53.254;10.398;2022-12-18T14:48:19;-3.60;99.90
13231;DHT22;6681;53.254;10.398;2022-12-18T14:50:55;-3.50;99.90
13231;DHT22;6681;53.254;10.398;2022-12-18T14:53:26;-2.20;99.90
13231;DHT22;6681;53.254;10.398;2022-12-18T14:55:53;-3.50;99.90
13231;DHT22;6681;53.254;10.398;2022-12-18T14:58:19;-3.50;99.90
13231;DHT22;6681;53.254;10.398;2022-12-18T15:00:45;-3.60;99.90
13231;DHT22;6681;53.254;10.398;2022-12-18T15:03:18;-3.60;99.90
13231;DHT22;6681;53.254;10.398;2022-12-18T15:05:45;-3.60;99.90
13231;DHT22;6681;53.254;10.398;2022-12-18T15:08:35;-3.60;99.90
13231;DHT22;6681;53.254;10.398;2022-12-18T15:11:01;-3.60;99.90
13231;DHT22;6681;53.254;10.398;2022-12-18T15:13:26;-3.70;99.90
13231;DHT22;6681;53.254;10.398;2022-12-18T15:15:54;-3.70;99.90
13231;DHT22;6681;53.254;10.398;2022-12-18T15:18:29;-3.60;99.90
13231;DHT22;6681;53.254;10.398;2022-12-18T15:20:59;-3.70;99.90
13231;DHT22;6681;53.254;10.398;2022-12-18T15:23:47;-2.30;99.90
13231;DHT22;6681;53.254;10.398;2022-12-18T15:26:15;-3.70;99.90
13231;DHT22;6681;53.254;10.398;2022-12-18T15:28:49;-3.70;99.90
13231;DHT22;6681;53.254;10.398;2022-12-18T15:33:43;-3.70;99.90
13231;DHT22;6681;53.254;10.398;2022-12-18T15:36:13;-3.80;99.90
13231;DHT22;6681;53.254;10.398;2022-12-18T15:38:39;-3.80;99.90
13231;DHT22;6681;53.254;10.398;2022-12-18T15:41:13;-3.80;99.90
13231;DHT22;6681;53.254;10.398;2022-12-18T15:43:39;-3.90;99.90
13231;DHT22;6681;53.254;10.398;2022-12-18T15:46:22;-3.80;99.90
13231;DHT22;6681;53.254;10.398;2022-12-18T15:48:50;-3.90;99.90
13231;DHT22;6681;53.254;10.398;2022-12-18T15:51:22;-3.80;99.90
13231;DHT22;6681;53.254;10.398;2022-12-18T15:53:50;-3.90;99.90
13231;DHT22;6681;53.254;10.398;2022-12-18T15:56:18;-3.80;99.90
13231;DHT22;6681;53.254;10.398;2022-12-18T15:59:04;-3.80;99.90
13231;DHT22;6681;53.254;10.398;2022-12-18T16:01:30;-3.90;99.90
13231;DHT22;6681;53.254;10.398;2022-12-18T16:03:57;-3.90;99.90
13231;DHT22;6681;53.254;10.398;2022-12-18T16:06:23;-3.90;99.90
13231;DHT22;6681;53.254;10.398;2022-12-18T16:08:49;-3.90;99.90
13231;DHT22;6681;53.254;10.398;2022-12-18T16:11:29;-3.90;99.90
13231;DHT22;6681;53.254;10.398;2022-12-18T16:14:17;-3.00;99.90
13231;DHT22;6681;53.254;10.398;2022-12-18T16:16:44;-3.90;99.90
13231;DHT22;6681;53.254;10.398;2022-12-18T16:19:11;-3.90;99.90
13231;DHT22;6681;53.254;10.398;2022-12-18T16:21:36;-3.90;99.90
13231;DHT22;6681;53.254;10.398;2022-12-18T16:24:38;-3.80;99.90
13231;DHT22;6681;53.254;10.398;2022-12-18T16:26:58;-3.80;99.90
13231;DHT22;6681;53.254;10.398;2022-12-18T16:29:26;-3.80;99.90
13231;DHT22;6681;53.254;10.398;2022-12-18T16:32:01;-3.80;99.90
13231;DHT22;6681;53.254;10.398;2022-12-18T16:34:29;-3.80;99.90
13231;DHT22;6681;53.254;10.398;2022-12-18T16:37:06;-3.80;99.90
13231;DHT22;6681;53.254;10.398;2022-12-18T16:39:33;-3.80;99.90
13231;DHT22;6681;53.254;10.398;2022-12-18T16:42:03;-2.90;99.90
13231;DHT22;6681;53.254;10.398;2022-12-18T16:44:29;-3.80;99.90
13231;DHT22;6681;53.254;10.398;2022-12-18T16:46:55;-3.80;99.90
13231;DHT22;6681;53.254;10.398;2022-12-18T16:49:27;-3.80;99.90
13231;DHT22;6681;53.254;10.398;2022-12-18T16:51:52;-3.70;99.90
13231;DHT22;6681;53.254;10.398;2022-12-18T16:54:19;-3.70;99.90
13231;DHT22;6681;53.254;10.398;2022-12-18T16:56:44;-3.50;99.90
13231;DHT22;6681;53.254;10.398;2022-12-18T16:59:12;-3.70;99.90
13231;DHT22;6681;53.254;10.398;2022-12-18T17:01:38;-3.70;99.90
13231;DHT22;6681;53.254;10.398;2022-12-18T17:04:05;-3.70;99.90
13231;DHT22;6681;53.254;10.398;2022-12-18T17:06:33;-3.00;99.90
13231;DHT22;6681;53.254;10.398;2022-12-18T17:09:04;-3.70;99.90
13231;DHT22;6681;53.254;10.398;2022-12-18T17:11:32;-3.70;99.90
13231;DHT22;6681;53.254;10.398;2022-12-18T17:13:58;-3.50;99.90
13231;DHT22;6681;53.254;10.398;2022-12-18T17:16:25;-3.60;99.90
13231;DHT22;6681;53.254;10.398;2022-12-18T17:18:52;-3.60;99.90
13231;DHT22;6681;53.254;10.398;2022-12-18T17:21:18;-3.60;99.90
13231;DHT22;6681;53.254;10.398;2022-12-18T17:23:44;-3.60;99.90
13231;DHT22;6681;53.254;10.398;2022-12-18T17:26:13;-3.60;99.90
13231;DHT22;6681;53.254;10.398;2022-12-18T17:28:40;-3.60;99.90
13231;DHT22;6681;53.254;10.398;2022-12-18T17:31:17;-3.60;99.90
13231;DHT22;6681;53.254;10.398;2022-12-18T17:33:43;-3.20;99.90
13231;DHT22;6681;53.254;10.398;2022-12-18T17:36:09;-3.60;99.90
13231;DHT22;6681;53.254;10.398;2022-12-18T17:38:35;-3.60;99.90
13231;DHT22;6681;53.254;10.398;2022-12-18T17:41:06;-3.50;99.90
13231;DHT22;6681;53.254;10.398;2022-12-18T17:43:32;-2.90;99.90
13231;DHT22;6681;53.254;10.398;2022-12-18T17:46:02;-3.50;99.90
13231;DHT22;6681;53.254;10.398;2022-12-18T17:48:28;-3.00;99.90